Time;durP1;ratioP1;P1;durP2;ratioP2;P2;SDS_P1;SDS_P2;PMS_P1;PMS_P2;Temp;Humidity;BMP_temperature;BMP_pressure;BME280_temperature;BME280_humidity;BME280_pressure;Samples;Min_cycle;Max_cycle;Signal;HPM_P1;HPM_P2
2023/04/19 00:00:41;;;;;;;;;;;9.60;99.90;;;;;;5078422;28;19909;-58
2023/04/19 00:03:08;;;;;;;;;;;9.50;99.90;;;;;;5078173;28;19916;-57
2023/04/19 00:05:34;;;;;;;;;;;9.50;99.90;;;;;;5078235;28;19912;-55
2023/04/19 00:08:00;;;;;;;;;;;9.50;99.90;;;;;;5078228;28;19939;-55
2023/04/19 00:10:25;;;;;;;;;;;9.50;99.90;;;;;;5078080;28;20330;-57
2023/04/19 00:12:51;;;;;;;;;;;9.40;99.90;;;;;;5078153;28;19909;-54
2023/04/19 00:15:17;;;;;;;;;;;9.40;99.90;;;;;;5078144;28;19987;-57
2023/04/19 00:17:43;;;;;;;;;;;9.40;99.90;;;;;;5078033;28;19944;-57
2023/04/19 00:20:10;;;;;;;;;;;9.40;99.90;;;;;;5078091;28;19909;-56
2023/04/19 00:22:35;;;;;;;;;;;9.30;99.90;;;;;;5078092;28;19913;-57
2023/04/19 00:25:01;;;;;;;;;;;9.30;99.90;;;;;;5078127;28;19962;-55
2023/04/19 00:27:27;;;;;;;;;;;9.30;99.90;;;;;;5077865;28;19920;-58
2023/04/19 00:29:52;;;;;;;;;;;9.30;99.90;;;;;;5078300;28;20318;-56
2023/04/19 00:32:18;;;;;;;;;;;9.30;99.90;;;;;;5077796;28;19984;-57
2023/04/19 00:34:44;;;;;;;;;;;9.30;99.90;;;;;;5077833;28;20007;-57
2023/04/19 00:37:10;;;;;;;;;;;9.20;99.90;;;;;;5077775;28;19931;-57
2023/04/19 00:39:36;;;;;;;;;;;9.30;99.90;;;;;;5077790;28;20391;-56
2023/04/19 00:42:01;;;;;;;;;;;9.30;99.90;;;;;;5077884;28;19909;-56
2023/04/19 00:44:27;;;;;;;;;;;9.20;99.90;;;;;;5077847;28;19909;-57
2023/04/19 00:46:52;;;;;;;;;;;9.20;99.90;;;;;;5077772;28;19955;-57
2023/04/19 00:49:19;;;;;;;;;;;9.00;99.90;;;;;;5078017;28;20386;-56
2023/04/19 00:51:45;;;;;;;;;;;9.20;99.90;;;;;;5077824;28;19916;-56
2023/04/19 00:54:11;;;;;;;;;;;9.20;99.90;;;;;;5077849;28;20417;-57
2023/04/19 00:56:36;;;;;;;;;;;9.20;99.90;;;;;;5077608;28;19912;-57
2023/04/19 00:59:02;;;;;;;;;;;9.20;99.90;;;;;;5077879;28;19912;-57
2023/04/19 01:01:28;;;;;;;;;;;9.10;99.90;;;;;;5077766;28;19976;-56
2023/04/19 01:03:54;;;;;;;;;;;9.30;99.90;;;;;;5077968;28;20375;-57
2023/04/19 01:06:19;;;;;;;;;;;9.20;99.90;;;;;;5077508;28;21051;-56
2023/04/19 01:08:45;;;;;;;;;;;9.20;99.90;;;;;;5077254;28;19908;-56
2023/04/19 01:11:11;;;;;;;;;;;9.20;99.90;;;;;;5077465;28;19955;-57
2023/04/19 01:13:36;;;;;;;;;;;9.20;99.90;;;;;;5077463;28;19909;-57
2023/04/19 01:16:02;;;;;;;;;;;9.10;99.90;;;;;;5076002;28;20402;-57
2023/04/19 01:18:31;;;;;;;;;;;9.10;99.90;;;;;;5077369;28;19909;-56
2023/04/19 01:20:57;;;;;;;;;;;9.10;99.90;;;;;;5077625;28;19985;-57
2023/04/19 01:23:23;;;;;;;;;;;9.00;99.90;;;;;;5077430;28;19956;-57
2023/04/19 01:25:49;;;;;;;;;;;9.00;99.90;;;;;;5077254;28;20379;-57
2023/04/19 01:28:14;;;;;;;;;;;9.10;99.90;;;;;;5076939;28;19970;-56
2023/04/19 01:30:40;;;;;;;;;;;9.10;99.90;;;;;;5077278;28;19947;-55
2023/04/19 01:33:06;;;;;;;;;;;9.10;99.90;;;;;;5077480;28;19909;-57
2023/04/19 01:35:31;;;;;;;;;;;9.10;99.90;;;;;;5077525;28;19908;-57
2023/04/19 01:37:57;;;;;;;;;;;9.00;99.90;;;;;;5080706;28;20378;-57
2023/04/19 01:40:23;;;;;;;;;;;9.00;99.90;;;;;;5081278;28;20007;-56
2023/04/19 01:42:49;;;;;;;;;;;8.90;99.90;;;;;;5080644;28;19916;-56
2023/04/19 01:45:15;;;;;;;;;;;9.00;99.90;;;;;;5080780;28;19909;-57
2023/04/19 01:47:40;;;;;;;;;;;9.00;99.90;;;;;;5080641;28;20466;-56
2023/04/19 01:50:06;;;;;;;;;;;8.90;99.90;;;;;;5080766;28;19908;-56
2023/04/19 01:52:32;;;;;;;;;;;9.10;99.90;;;;;;5080753;28;19909;-56
2023/04/19 01:54:57;;;;;;;;;;;8.90;99.90;;;;;;5080342;28;20019;-56
2023/04/19 01:57:23;;;;;;;;;;;8.90;99.90;;;;;;5080472;28;19991;-57
2023/04/19 01:59:49;;;;;;;;;;;8.90;99.90;;;;;;5080502;28;19909;-54
2023/04/19 02:02:14;;;;;;;;;;;8.90;99.90;;;;;;5080533;28;19916;-58
2023/04/19 02:04:40;;;;;;;;;;;8.90;99.90;;;;;;5080165;28;19961;-56
2023/04/19 02:07:06;;;;;;;;;;;9.00;99.90;;;;;;5080722;28;20270;-57
2023/04/19 02:09:35;;;;;;;;;;;8.90;99.90;;;;;;5080062;28;20419;-57
2023/04/19 02:12:01;;;;;;;;;;;9.00;99.90;;;;;;5080418;28;19951;-56
2023/04/19 02:14:27;;;;;;;;;;;8.80;99.90;;;;;;5080331;28;19916;-55
2023/04/19 02:16:53;;;;;;;;;;;8.80;99.90;;;;;;5080208;28;19913;-56
2023/04/19 02:19:18;;;;;;;;;;;8.80;99.90;;;;;;5080740;28;19908;-56
2023/04/19 02:21:44;;;;;;;;;;;8.80;99.90;;;;;;5078598;28;19915;-56
2023/04/19 02:24:09;;;;;;;;;;;8.80;99.90;;;;;;5079864;28;19908;-55
2023/04/19 02:26:35;;;;;;;;;;;8.80;99.90;;;;;;5079862;28;20019;-55
2023/04/19 02:29:03;;;;;;;;;;;8.80;99.90;;;;;;5079328;28;20136;-57
2023/04/19 02:31:28;;;;;;;;;;;8.80;99.90;;;;;;5080327;28;19960;-57
2023/04/19 02:33:54;;;;;;;;;;;8.80;99.90;;;;;;5080004;28;19908;-57
2023/04/19 02:36:20;;;;;;;;;;;8.80;99.90;;;;;;5080002;28;19908;-57
2023/04/19 02:38:45;;;;;;;;;;;8.80;99.90;;;;;;5079680;28;20375;-57
2023/04/19 02:41:11;;;;;;;;;;;8.80;99.90;;;;;;5079887;28;20007;-55
2023/04/19 02:43:36;;;;;;;;;;;8.70;99.90;;;;;;5079617;28;20432;-57
2023/04/19 02:46:02;;;;;;;;;;;8.70;99.90;;;;;;5079839;28;19987;-54
2023/04/19 02:48:28;;;;;;;;;;;8.70;99.90;;;;;;5079593;28;19915;-56
2023/04/19 02:50:54;;;;;;;;;;;8.70;99.90;;;;;;5079219;28;20401;-57
2023/04/19 02:53:19;;;;;;;;;;;8.60;99.90;;;;;;5079772;28;19909;-57
2023/04/19 02:55:45;;;;;;;;;;;8.60;99.90;;;;;;5079150;28;19909;-56
2023/04/19 02:58:10;;;;;;;;;;;8.60;99.90;;;;;;5079499;28;19916;-57
2023/04/19 03:00:36;;;;;;;;;;;8.70;99.90;;;;;;5079531;28;20269;-57
2023/04/19 03:03:04;;;;;;;;;;;8.50;99.90;;;;;;5079401;28;19988;-56
2023/04/19 03:05:30;;;;;;;;;;;8.60;99.90;;;;;;5079073;28;19920;-57
2023/04/19 03:07:55;;;;;;;;;;;8.50;99.90;;;;;;5079371;28;19909;-56
2023/04/19 03:10:21;;;;;;;;;;;8.60;99.90;;;;;;5079128;28;19915;-53
2023/04/19 03:12:46;;;;;;;;;;;8.60;99.90;;;;;;5079241;28;19908;-57
2023/04/19 03:15:12;;;;;;;;;;;8.60;99.90;;;;;;5078952;28;19912;-58
2023/04/19 03:17:38;;;;;;;;;;;8.50;99.90;;;;;;5078916;28;19969;-57
2023/04/19 03:20:13;;;;;;;;;;;8.50;99.90;;;;;;5079049;28;19908;-55
2023/04/19 03:22:38;;;;;;;;;;;8.60;99.90;;;;;;5078976;28;20275;-56
2023/04/19 03:25:04;;;;;;;;;;;8.60;99.90;;;;;;5078960;28;19909;-57
2023/04/19 03:27:30;;;;;;;;;;;8.80;99.90;;;;;;5078590;28;19944;-57
2023/04/19 03:29:55;;;;;;;;;;;8.60;99.90;;;;;;5079045;28;19913;-56
2023/04/19 03:32:21;;;;;;;;;;;8.50;99.90;;;;;;5078860;28;19908;-57
2023/04/19 03:34:47;;;;;;;;;;;8.60;99.90;;;;;;5078585;28;19909;-58
2023/04/19 03:37:12;;;;;;;;;;;8.50;99.90;;;;;;5078796;28;19962;-57
2023/04/19 03:39:38;;;;;;;;;;;8.70;99.90;;;;;;5078725;28;19947;-57
2023/04/19 03:42:04;;;;;;;;;;;8.50;99.90;;;;;;5078654;28;19995;-57
2023/04/19 03:44:33;;;;;;;;;;;8.50;99.90;;;;;;5078432;28;19909;-58
2023/04/19 03:46:59;;;;;;;;;;;8.50;99.90;;;;;;5078450;28;20271;-56
2023/04/19 03:49:24;;;;;;;;;;;8.50;99.90;;;;;;5078576;28;20003;-56
2023/04/19 03:51:50;;;;;;;;;;;8.60;99.90;;;;;;5078671;28;20377;-57
2023/04/19 03:54:16;;;;;;;;;;;8.40;99.90;;;;;;5078217;28;19972;-54
2023/04/19 03:56:41;;;;;;;;;;;8.50;99.90;;;;;;5078439;28;19914;-56
2023/04/19 03:59:08;;;;;;;;;;;8.50;99.90;;;;;;5076482;28;19909;-54
2023/04/19 04:01:34;;;;;;;;;;;8.50;99.90;;;;;;5090537;28;19908;-56
2023/04/19 04:04:00;;;;;;;;;;;8.60;99.90;;;;;;5098322;28;20448;-57
2023/04/19 04:06:25;;;;;;;;;;;8.50;99.90;;;;;;5098310;28;19912;-57
2023/04/19 04:08:51;;;;;;;;;;;8.50;99.90;;;;;;5098515;28;19908;-57
2023/04/19 04:11:17;;;;;;;;;;;8.60;99.90;;;;;;5098357;28;20261;-56
2023/04/19 04:13:42;;;;;;;;;;;8.50;99.90;;;;;;5098340;28;19919;-57
2023/04/19 04:16:08;;;;;;;;;;;8.60;99.90;;;;;;5098460;28;19908;-56
2023/04/19 04:18:33;;;;;;;;;;;8.60;99.90;;;;;;5098211;28;19912;-56
2023/04/19 04:20:59;;;;;;;;;;;8.70;99.90;;;;;;5098406;28;19962;-56
2023/04/19 04:23:25;;;;;;;;;;;8.60;99.90;;;;;;5098293;28;19908;-57
2023/04/19 04:25:59;;;;;;;;;;;8.70;99.90;;;;;;5098395;28;20382;-57
2023/04/19 04:28:26;;;;;;;;;;;8.70;99.90;;;;;;5096777;28;19979;-56
2023/04/19 04:30:52;;;;;;;;;;;8.60;99.90;;;;;;5098238;28;19908;-56
2023/04/19 04:33:17;;;;;;;;;;;8.70;99.90;;;;;;5098063;28;19915;-55
2023/04/19 04:35:43;;;;;;;;;;;8.70;99.90;;;;;;5098064;28;19987;-57
2023/04/19 04:38:09;;;;;;;;;;;8.80;99.90;;;;;;5098221;28;19908;-58
2023/04/19 04:40:35;;;;;;;;;;;8.80;99.90;;;;;;5098021;28;19908;-57
2023/04/19 04:43:03;;;;;;;;;;;8.80;99.90;;;;;;5098017;28;19957;-57
2023/04/19 04:45:29;;;;;;;;;;;8.80;99.90;;;;;;5097692;28;20303;-55
2023/04/19 04:47:54;;;;;;;;;;;8.80;99.90;;;;;;5098062;28;19915;-57
2023/04/19 04:50:20;;;;;;;;;;;8.70;99.90;;;;;;5098077;28;19908;-57
2023/04/19 04:52:46;;;;;;;;;;;8.80;99.90;;;;;;5097870;28;19909;-57
2023/04/19 04:55:11;;;;;;;;;;;8.80;99.90;;;;;;5098327;28;20276;-56
2023/04/19 04:57:37;;;;;;;;;;;8.70;99.90;;;;;;5097996;28;19947;-57
2023/04/19 05:00:04;;;;;;;;;;;8.70;99.90;;;;;;5098264;28;19912;-56
2023/04/19 05:02:30;;;;;;;;;;;8.70;99.90;;;;;;5097740;28;19908;-57
2023/04/19 05:04:55;;;;;;;;;;;8.70;99.90;;;;;;5097809;28;20383;-58
2023/04/19 05:07:21;;;;;;;;;;;8.70;99.90;;;;;;5097543;28;19947;-55
2023/04/19 05:09:46;;;;;;;;;;;8.70;99.90;;;;;;5097734;28;19931;-57
2023/04/19 05:12:13;;;;;;;;;;;8.70;99.90;;;;;;5099935;28;19919;-58
2023/04/19 05:14:38;;;;;;;;;;;8.80;99.90;;;;;;5101281;28;19908;-57
2023/04/19 05:17:04;;;;;;;;;;;8.80;99.90;;;;;;5101516;28;19908;-56
2023/04/19 05:19:29;;;;;;;;;;;8.80;99.90;;;;;;5101540;28;19958;-57
2023/04/19 05:21:55;;;;;;;;;;;8.80;99.90;;;;;;5101594;28;19931;-57
2023/04/19 05:24:21;;;;;;;;;;;8.70;99.90;;;;;;5101354;28;19907;-57
2023/04/19 05:26:46;;;;;;;;;;;8.80;99.90;;;;;;5100868;28;20002;-57
2023/04/19 05:29:12;;;;;;;;;;;8.70;99.90;;;;;;5101141;28;19973;-57
2023/04/19 05:31:38;;;;;;;;;;;8.80;99.90;;;;;;5101365;28;19944;-56
2023/04/19 05:34:03;;;;;;;;;;;8.80;99.90;;;;;;5101109;28;19912;-57
2023/04/19 05:36:29;;;;;;;;;;;8.80;99.90;;;;;;5101455;28;19908;-58
2023/04/19 05:38:55;;;;;;;;;;;8.80;99.90;;;;;;5101010;28;19985;-57
2023/04/19 05:41:20;;;;;;;;;;;8.80;99.90;;;;;;5101113;28;20421;-57
2023/04/19 05:43:46;;;;;;;;;;;8.90;99.90;;;;;;5101230;28;19915;-55
2023/04/19 05:46:11;;;;;;;;;;;8.90;99.90;;;;;;5100941;28;19911;-58
2023/04/19 05:48:37;;;;;;;;;;;8.80;99.90;;;;;;5101610;28;19908;-57
2023/04/19 05:51:03;;;;;;;;;;;8.80;99.90;;;;;;5101043;28;19912;-55
2023/04/19 05:53:28;;;;;;;;;;;8.90;99.90;;;;;;5101241;28;19908;-57
2023/04/19 05:55:54;;;;;;;;;;;8.90;99.90;;;;;;5100994;28;19909;-56
2023/04/19 05:58:20;;;;;;;;;;;9.00;99.90;;;;;;5100596;28;19915;-57
2023/04/19 06:00:45;;;;;;;;;;;9.10;99.90;;;;;;5100708;28;19908;-55
2023/04/19 06:03:11;;;;;;;;;;;9.10;99.90;;;;;;5100786;28;19908;-57
2023/04/19 06:05:39;;;;;;;;;;;9.10;99.90;;;;;;5100511;28;20393;-56
2023/04/19 06:08:04;;;;;;;;;;;9.20;99.90;;;;;;5100725;28;19908;-55
2023/04/19 06:10:30;;;;;;;;;;;9.30;99.90;;;;;;5100681;28;19908;-57
2023/04/19 06:12:56;;;;;;;;;;;9.40;99.90;;;;;;5100457;28;19995;-57
2023/04/19 06:15:21;;;;;;;;;;;9.40;99.90;;;;;;5100791;28;19908;-56
2023/04/19 06:17:47;;;;;;;;;;;9.40;99.90;;;;;;5100733;28;19909;-57
2023/04/19 06:20:13;;;;;;;;;;;9.50;99.90;;;;;;5100483;28;19912;-57
2023/04/19 06:22:44;;;;;;;;;;;9.40;99.90;;;;;;5099769;28;19908;-56
2023/04/19 06:25:10;;;;;;;;;;;9.50;99.90;;;;;;5100219;28;20336;-58
2023/04/19 06:27:36;;;;;;;;;;;9.60;99.90;;;;;;5099761;28;19942;-55
2023/04/19 06:30:02;;;;;;;;;;;9.60;99.90;;;;;;5099807;28;20027;-57
2023/04/19 06:32:27;;;;;;;;;;;9.70;99.90;;;;;;5097882;28;20007;-57
2023/04/19 06:34:53;;;;;;;;;;;9.80;99.90;;;;;;5098299;28;19916;-57
2023/04/19 06:37:18;;;;;;;;;;;9.80;99.90;;;;;;5100150;28;19912;-57
2023/04/19 06:39:44;;;;;;;;;;;10.00;99.90;;;;;;5099797;28;20371;-57
2023/04/19 06:42:11;;;;;;;;;;;9.90;99.90;;;;;;5099978;28;20237;-57
2023/04/19 06:44:36;;;;;;;;;;;10.00;99.90;;;;;;5099536;28;19991;-57
2023/04/19 06:47:02;;;;;;;;;;;10.00;99.90;;;;;;5099596;28;19954;-57
2023/04/19 06:49:28;;;;;;;;;;;10.00;99.90;;;;;;5099498;28;19953;-57
2023/04/19 06:51:54;;;;;;;;;;;10.10;99.90;;;;;;5097810;28;19915;-58
2023/04/19 06:54:19;;;;;;;;;;;10.10;99.90;;;;;;5097885;28;20345;-57
2023/04/19 06:56:46;;;;;;;;;;;10.10;99.90;;;;;;5099237;28;19909;-57
2023/04/19 06:59:12;;;;;;;;;;;10.20;99.90;;;;;;5098736;28;20367;-56
2023/04/19 07:01:38;;;;;;;;;;;10.30;99.90;;;;;;5099583;28;19908;-57
2023/04/19 07:04:04;;;;;;;;;;;10.40;99.90;;;;;;5099402;28;19959;-57
2023/04/19 07:06:30;;;;;;;;;;;10.40;99.90;;;;;;5099477;28;19942;-57
2023/04/19 07:08:56;;;;;;;;;;;10.50;99.90;;;;;;5099805;28;19908;-57
2023/04/19 07:11:21;;;;;;;;;;;10.60;99.90;;;;;;5099669;28;20352;-57
2023/04/19 07:13:47;;;;;;;;;;;10.60;99.90;;;;;;5099401;28;19908;-57
2023/04/19 07:16:13;;;;;;;;;;;10.70;99.90;;;;;;5099339;28;19912;-57
2023/04/19 07:18:39;;;;;;;;;;;10.70;99.90;;;;;;5098301;28;19915;-58
2023/04/19 07:21:05;;;;;;;;;;;10.80;99.90;;;;;;5099158;28;19908;-57
2023/04/19 07:23:30;;;;;;;;;;;11.00;99.90;;;;;;5099229;28;20379;-57
2023/04/19 07:25:56;;;;;;;;;;;11.00;99.90;;;;;;5099255;28;19912;-55
2023/04/19 07:28:21;;;;;;;;;;;11.00;99.90;;;;;;5099033;28;20379;-56
2023/04/19 07:30:47;;;;;;;;;;;11.10;99.90;;;;;;5098704;28;19943;-57
2023/04/19 07:33:12;;;;;;;;;;;11.20;99.90;;;;;;5098791;28;19919;-56
2023/04/19 07:35:38;;;;;;;;;;;11.20;99.90;;;;;;5097071;28;20348;-57
2023/04/19 07:38:04;;;;;;;;;;;11.30;99.90;;;;;;5099220;28;19908;-57
2023/04/19 07:40:30;;;;;;;;;;;11.40;99.90;;;;;;5098916;28;19908;-57
2023/04/19 07:42:55;;;;;;;;;;;11.50;99.90;;;;;;5098673;28;19971;-58
2023/04/19 07:45:21;;;;;;;;;;;11.60;99.90;;;;;;5098853;28;19908;-58
2023/04/19 07:47:46;;;;;;;;;;;11.60;99.90;;;;;;5098782;28;19908;-57
2023/04/19 07:50:12;;;;;;;;;;;11.70;99.90;;;;;;5098672;28;20066;-58
2023/04/19 07:52:38;;;;;;;;;;;11.70;99.90;;;;;;5098749;28;19912;-57
2023/04/19 07:55:04;;;;;;;;;;;11.80;99.90;;;;;;5098914;28;19915;-57
2023/04/19 07:57:30;;;;;;;;;;;11.80;99.90;;;;;;5098670;28;20312;-58
2023/04/19 07:59:58;;;;;;;;;;;11.90;99.90;;;;;;5098252;28;20311;-58
2023/04/19 08:02:26;;;;;;;;;;;12.00;99.90;;;;;;5098581;28;19912;-58
2023/04/19 08:04:52;;;;;;;;;;;12.10;99.90;;;;;;5098279;28;19958;-58
2023/04/19 08:07:18;;;;;;;;;;;12.00;99.90;;;;;;5098493;28;19912;-58
2023/04/19 08:09:43;;;;;;;;;;;12.20;99.90;;;;;;5098464;28;19915;-58
2023/04/19 08:12:09;;;;;;;;;;;12.20;99.90;;;;;;5098226;28;19908;-58
2023/04/19 08:14:37;;;;;;;;;;;12.30;99.90;;;;;;5098208;28;19908;-58
2023/04/19 08:17:03;;;;;;;;;;;12.40;99.90;;;;;;5098042;28;19908;-58
2023/04/19 08:19:29;;;;;;;;;;;12.60;99.90;;;;;;5094621;28;19916;-57
2023/04/19 08:21:55;;;;;;;;;;;12.70;99.90;;;;;;5087681;28;20272;-58
2023/04/19 08:24:21;;;;;;;;;;;12.80;99.90;;;;;;5097998;28;19915;-58
2023/04/19 08:26:52;;;;;;;;;;;12.90;99.90;;;;;;5097635;28;19920;-58
2023/04/19 08:29:21;;;;;;;;;;;12.90;99.90;;;;;;5096535;28;19912;-58
2023/04/19 08:31:46;;;;;;;;;;;13.00;99.90;;;;;;5098096;28;19946;-57
2023/04/19 08:34:12;;;;;;;;;;;13.00;99.90;;;;;;5097812;28;19908;-58
2023/04/19 08:36:37;;;;;;;;;;;13.10;99.90;;;;;;5097928;28;19908;-58
2023/04/19 08:39:03;;;;;;;;;;;13.20;99.90;;;;;;5097789;28;19912;-58
2023/04/19 08:41:33;;;;;;;;;;;13.30;99.90;;;;;;5098328;28;19908;-59
2023/04/19 08:44:00;;;;;;;;;;;13.40;99.90;;;;;;5098110;28;19912;-57
2023/04/19 08:46:26;;;;;;;;;;;13.50;99.90;;;;;;5100089;28;19912;-58
2023/04/19 08:48:52;;;;;;;;;;;13.60;99.90;;;;;;5102037;28;19930;-58
2023/04/19 08:51:18;;;;;;;;;;;13.60;99.90;;;;;;5101586;28;19915;-58
2023/04/19 08:53:44;;;;;;;;;;;13.80;99.90;;;;;;5101628;28;19915;-58
2023/04/19 08:56:10;;;;;;;;;;;13.90;99.90;;;;;;5101461;28;19908;-57
2023/04/19 08:58:36;;;;;;;;;;;13.90;99.90;;;;;;5102009;28;19915;-57
2023/04/19 09:01:05;;;;;;;;;;;13.90;99.90;;;;;;5101931;28;19908;-58
2023/04/19 09:03:31;;;;;;;;;;;14.20;99.90;;;;;;5100668;28;19908;-58
2023/04/19 09:05:57;;;;;;;;;;;14.30;99.90;;;;;;5101380;28;19919;-56
2023/04/19 09:08:27;;;;;;;;;;;14.40;99.90;;;;;;5102337;28;19995;-58
2023/04/19 09:10:53;;;;;;;;;;;14.70;99.90;;;;;;5101620;28;19931;-58
2023/04/19 09:13:19;;;;;;;;;;;14.80;99.90;;;;;;5101582;28;19912;-57
2023/04/19 09:15:45;;;;;;;;;;;15.00;99.90;;;;;;5101501;28;20321;-59
2023/04/19 09:18:10;;;;;;;;;;;15.20;99.90;;;;;;5101714;28;19908;-57
2023/04/19 09:20:37;;;;;;;;;;;15.30;99.90;;;;;;5101312;28;19908;-59
2023/04/19 09:23:04;;;;;;;;;;;15.50;99.90;;;;;;5101836;28;19908;-58
2023/04/19 09:25:30;;;;;;;;;;;15.70;99.90;;;;;;5101580;28;20389;-58
2023/04/19 09:28:07;;;;;;;;;;;15.80;99.90;;;;;;5101106;28;19943;-58
2023/04/19 09:30:33;;;;;;;;;;;16.10;99.90;;;;;;5101412;28;19908;-58
2023/04/19 09:32:58;;;;;;;;;;;16.40;99.90;;;;;;5101148;28;19985;-58
2023/04/19 09:35:38;;;;;;;;;;;17.00;99.90;;;;;;5099697;28;19915;-58
2023/04/19 09:38:04;;;;;;;;;;;17.30;99.90;;;;;;5101440;28;19908;-58
2023/04/19 09:40:30;;;;;;;;;;;17.90;99.90;;;;;;5101088;28;19958;-58
2023/04/19 09:42:55;;;;;;;;;;;18.60;99.90;;;;;;5100910;28;19930;-58
2023/04/19 09:45:21;;;;;;;;;;;19.10;99.90;;;;;;5101009;28;19908;-58
2023/04/19 09:47:59;;;;;;;;;;;19.20;99.90;;;;;;5101274;28;20008;-58
2023/04/19 09:50:25;;;;;;;;;;;19.40;99.90;;;;;;5100864;28;19915;-58
2023/04/19 09:52:51;;;;;;;;;;;19.50;99.90;;;;;;5100817;28;19908;-59
2023/04/19 09:55:17;;;;;;;;;;;20.10;99.90;;;;;;5100710;28;19951;-59
2023/04/19 09:57:43;;;;;;;;;;;21.00;99.90;;;;;;5099652;28;19912;-59
2023/04/19 10:00:12;;;;;;;;;;;20.30;92.10;;;;;;5101034;28;20002;-59
2023/04/19 10:02:39;;;;;;;;;;;20.70;98.90;;;;;;5100500;28;19908;-59
2023/04/19 10:05:06;;;;;;;;;;;21.30;99.90;;;;;;5101504;28;19908;-59
2023/04/19 10:07:32;;;;;;;;;;;21.60;99.90;;;;;;5100589;28;19912;-58
2023/04/19 10:09:58;;;;;;;;;;;22.30;99.90;;;;;;5100660;28;19933;-59
2023/04/19 10:12:25;;;;;;;;;;;23.00;91.70;;;;;;5100644;28;20276;-59
2023/04/19 10:14:51;;;;;;;;;;;23.80;97.60;;;;;;5100309;28;19915;-59
2023/04/19 10:17:17;;;;;;;;;;;23.80;84.70;;;;;;5100089;28;19915;-59
2023/04/19 10:19:44;;;;;;;;;;;24.80;91.90;;;;;;5100158;28;19912;-59
2023/04/19 10:22:10;;;;;;;;;;;25.70;97.20;;;;;;5100176;28;19908;-59
2023/04/19 10:24:36;;;;;;;;;;;25.60;71.80;;;;;;5100384;28;19995;-59
2023/04/19 10:27:05;;;;;;;;;;;24.10;74.50;;;;;;5099965;28;19963;-59
2023/04/19 10:29:50;;;;;;;;;;;23.70;70.30;;;;;;5100251;28;19980;-59
2023/04/19 10:32:15;;;;;;;;;;;24.80;81.30;;;;;;5100170;28;19915;-59
2023/04/19 10:34:41;;;;;;;;;;;25.30;71.80;;;;;;5100148;28;19999;-59
2023/04/19 10:37:09;;;;;;;;;;;25.40;71.30;;;;;;5100093;28;19915;-59
2023/04/19 10:39:39;;;;;;;;;;;25.30;67.40;;;;;;5099913;28;19908;-59
2023/04/19 10:42:04;;;;;;;;;;;24.10;63.70;;;;;;5099862;28;20060;-59
2023/04/19 10:44:30;;;;;;;;;;;23.90;70.80;;;;;;5100118;28;19944;-59
2023/04/19 10:46:57;;;;;;;;;;;25.10;72.70;;;;;;5099844;28;19912;-59
2023/04/19 10:49:23;;;;;;;;;;;26.00;87.20;;;;;;5099728;28;20010;-59
2023/04/19 10:51:51;;;;;;;;;;;26.90;71.90;;;;;;5099959;28;19908;-59
2023/04/19 10:54:25;;;;;;;;;;;27.80;74.10;;;;;;5099366;28;20367;-59
2023/04/19 10:56:57;;;;;;;;;;;26.90;62.60;;;;;;5098200;28;19909;-59
2023/04/19 10:59:23;;;;;;;;;;;25.20;62.20;;;;;;5099630;28;19915;-58
2023/04/19 11:01:50;;;;;;;;;;;24.60;64.70;;;;;;5099552;28;19912;-59
2023/04/19 11:04:17;;;;;;;;;;;25.10;65.20;;;;;;5099176;28;19933;-59
2023/04/19 11:06:51;;;;;;;;;;;24.20;64.10;;;;;;5099446;28;19912;-59
2023/04/19 11:09:24;;;;;;;;;;;24.80;64.80;;;;;;5098373;28;19958;-59
2023/04/19 11:11:51;;;;;;;;;;;25.50;64.20;;;;;;5099321;28;19923;-59
2023/04/19 11:14:19;;;;;;;;;;;26.20;65.10;;;;;;5099200;28;19995;-59
2023/04/19 11:16:45;;;;;;;;;;;26.70;67.30;;;;;;5099274;28;19908;-59
2023/04/19 11:19:14;;;;;;;;;;;25.80;61.30;;;;;;5099138;28;20325;-59
2023/04/19 11:21:39;;;;;;;;;;;25.60;61.50;;;;;;5098836;28;19934;-59
2023/04/19 11:24:09;;;;;;;;;;;25.30;61.90;;;;;;5098898;28;19991;-59
2023/04/19 11:26:34;;;;;;;;;;;24.40;62.30;;;;;;5098444;28;20358;-59
2023/04/19 11:29:00;;;;;;;;;;;24.50;63.00;;;;;;5098951;28;19978;-59
2023/04/19 11:31:26;;;;;;;;;;;24.50;62.40;;;;;;5098619;28;19908;-59
2023/04/19 11:33:52;;;;;;;;;;;24.20;61.40;;;;;;5099326;28;19908;-59
2023/04/19 11:36:17;;;;;;;;;;;23.30;61.70;;;;;;5098997;28;19930;-59
2023/04/19 11:38:49;;;;;;;;;;;23.10;61.30;;;;;;5098933;28;20321;-59
2023/04/19 11:41:15;;;;;;;;;;;23.30;62.40;;;;;;5098687;28;19934;-59
2023/04/19 11:43:44;;;;;;;;;;;24.70;60.40;;;;;;5099098;28;19947;-59
2023/04/19 11:46:10;;;;;;;;;;;24.00;60.20;;;;;;5098295;28;19912;-59
2023/04/19 11:48:36;;;;;;;;;;;24.80;62.50;;;;;;5098534;28;19908;-59
2023/04/19 11:51:02;;;;;;;;;;;25.70;61.00;;;;;;5098251;28;19908;-59
2023/04/19 11:53:29;;;;;;;;;;;26.30;62.60;;;;;;5098795;28;19908;-59
2023/04/19 11:56:05;;;;;;;;;;;26.90;60.60;;;;;;5098590;28;20000;-59
2023/04/19 11:58:31;;;;;;;;;;;26.80;58.00;;;;;;5098622;28;19908;-59
2023/04/19 12:01:11;;;;;;;;;;;26.50;58.00;;;;;;5098391;28;19908;-59
2023/04/19 12:03:43;;;;;;;;;;;26.20;54.40;;;;;;5098236;28;19908;-59
2023/04/19 12:06:10;;;;;;;;;;;26.60;51.20;;;;;;5098399;28;19912;-59
2023/04/19 12:08:37;;;;;;;;;;;26.90;59.80;;;;;;5097012;28;19930;-59
2023/04/19 12:11:03;;;;;;;;;;;26.60;55.50;;;;;;5098297;28;19908;-59
2023/04/19 12:13:31;;;;;;;;;;;26.50;54.90;;;;;;5098300;28;19951;-59
2023/04/19 12:15:57;;;;;;;;;;;27.00;57.90;;;;;;5098543;28;19947;-59
2023/04/19 12:18:23;;;;;;;;;;;27.40;56.20;;;;;;5098011;28;19912;-59
2023/04/19 12:20:50;;;;;;;;;;;27.50;59.40;;;;;;5097926;28;19914;-59
2023/04/19 12:23:17;;;;;;;;;;;28.10;60.20;;;;;;5097957;28;19908;-59
2023/04/19 12:25:45;;;;;;;;;;;28.30;56.70;;;;;;5098197;28;19908;-59
2023/04/19 12:28:10;;;;;;;;;;;28.00;59.10;;;;;;5097594;28;20371;-59
2023/04/19 12:30:36;;;;;;;;;;;27.70;54.40;;;;;;5098256;28;20012;-59
2023/04/19 12:33:02;;;;;;;;;;;27.20;58.90;;;;;;5097894;28;19957;-59
2023/04/19 12:35:28;;;;;;;;;;;27.40;54.40;;;;;;5097803;28;19908;-59
2023/04/19 12:37:54;;;;;;;;;;;27.10;59.60;;;;;;5097832;28;19908;-59
2023/04/19 12:40:20;;;;;;;;;;;27.60;60.10;;;;;;5097912;28;19949;-59
2023/04/19 12:42:47;;;;;;;;;;;27.60;59.60;;;;;;5097819;28;19908;-59
2023/04/19 12:45:13;;;;;;;;;;;27.90;60.70;;;;;;5098069;28;19912;-59
2023/04/19 12:47:39;;;;;;;;;;;27.70;54.90;;;;;;5097919;28;19972;-59
2023/04/19 12:50:06;;;;;;;;;;;26.20;57.50;;;;;;5097778;28;19908;-59
2023/04/19 12:52:31;;;;;;;;;;;26.70;55.00;;;;;;5097726;28;19931;-59
2023/04/19 12:54:57;;;;;;;;;;;26.00;56.60;;;;;;5097799;28;19908;-58
2023/04/19 12:57:23;;;;;;;;;;;25.80;58.30;;;;;;5097937;28;19912;-59
2023/04/19 12:59:48;;;;;;;;;;;25.90;58.70;;;;;;5098147;28;19915;-58
2023/04/19 13:02:14;;;;;;;;;;;25.90;60.30;;;;;;5097588;28;19912;-59
2023/04/19 13:04:40;;;;;;;;;;;25.50;57.20;;;;;;5097702;28;20351;-59
2023/04/19 13:07:05;;;;;;;;;;;25.30;60.10;;;;;;5097327;28;19916;-59
2023/04/19 13:09:31;;;;;;;;;;;25.80;59.70;;;;;;5097617;28;20378;-59
2023/04/19 13:11:57;;;;;;;;;;;25.50;57.90;;;;;;5097987;28;19915;-59
2023/04/19 13:14:23;;;;;;;;;;;24.70;58.90;;;;;;5097754;28;19908;-59
2023/04/19 13:16:48;;;;;;;;;;;24.80;61.10;;;;;;5097537;28;19915;-59
2023/04/19 13:19:14;;;;;;;;;;;25.90;61.10;;;;;;5097326;28;20030;-59
2023/04/19 13:21:40;;;;;;;;;;;26.20;60.40;;;;;;5097723;28;20312;-59
2023/04/19 13:24:06;;;;;;;;;;;26.50;61.80;;;;;;5097927;28;19915;-59
2023/04/19 13:26:33;;;;;;;;;;;26.80;59.90;;;;;;5097384;28;19920;-59
2023/04/19 13:28:59;;;;;;;;;;;27.10;60.20;;;;;;5097396;28;19961;-59
2023/04/19 13:31:25;;;;;;;;;;;27.10;59.10;;;;;;5097388;28;19908;-59
2023/04/19 13:33:51;;;;;;;;;;;27.50;59.50;;;;;;5100520;28;19912;-59
2023/04/19 13:36:17;;;;;;;;;;;27.50;60.00;;;;;;5101150;28;19944;-58
2023/04/19 13:38:44;;;;;;;;;;;27.60;60.10;;;;;;5100934;28;19919;-59
2023/04/19 13:41:10;;;;;;;;;;;27.50;56.90;;;;;;5100789;28;19995;-59
2023/04/19 13:43:36;;;;;;;;;;;27.50;57.00;;;;;;5101086;28;19946;-59
2023/04/19 13:46:01;;;;;;;;;;;27.30;58.00;;;;;;5100852;28;19912;-59
2023/04/19 13:48:27;;;;;;;;;;;27.30;54.20;;;;;;5100768;28;19909;-59
2023/04/19 13:50:56;;;;;;;;;;;26.70;53.60;;;;;;5101028;28;20003;-59
2023/04/19 13:53:23;;;;;;;;;;;26.20;56.80;;;;;;5100456;28;19966;-59
2023/04/19 13:55:48;;;;;;;;;;;26.40;55.50;;;;;;5100545;28;19908;-59
2023/04/19 13:58:14;;;;;;;;;;;26.30;54.60;;;;;;5101090;28;20256;-59
2023/04/19 14:00:40;;;;;;;;;;;26.10;56.40;;;;;;5100913;28;19953;-59
2023/04/19 14:03:05;;;;;;;;;;;26.30;55.90;;;;;;5100504;28;20007;-59
2023/04/19 14:05:31;;;;;;;;;;;25.60;55.30;;;;;;5100113;28;19915;-59
2023/04/19 14:07:57;;;;;;;;;;;24.80;57.50;;;;;;5100843;28;20405;-59
2023/04/19 14:10:22;;;;;;;;;;;25.50;56.70;;;;;;5100491;28;19908;-59
2023/04/19 14:12:49;;;;;;;;;;;26.00;56.90;;;;;;5100342;28;19987;-59
2023/04/19 14:15:15;;;;;;;;;;;25.80;55.40;;;;;;5100576;28;20284;-59
2023/04/19 14:17:41;;;;;;;;;;;26.00;54.90;;;;;;5100288;28;19908;-58